sensor_id;sensor_type;location;lat;lon;timestamp;temperature;humidity
41939;DHT22;23057;48.554;14.454;2023-07-20T00:01:41;16.70;99.90
41939;DHT22;23057;48.554;14.454;2023-07-20T00:04:15;16.60;99.90
41939;DHT22;23057;48.554;14.454;2023-07-20T00:06:45;16.10;99.90
41939;DHT22;23057;48.554;14.454;2023-07-20T00:09:16;16.30;99.90
41939;DHT22;23057;48.554;14.454;2023-07-20T00:11:51;16.40;99.90
41939;DHT22;23057;48.554;14.454;2023-07-20T00:14:23;16.50;99.90
41939;DHT22;23057;48.554;14.454;2023-07-20T00:16:55;16.50;99.90
41939;DHT22;23057;48.554;14.454;2023-07-20T00:19:27;16.40;99.90
41939;DHT22;23057;48.554;14.454;2023-07-20T00:21:58;16.40;99.90
41939;DHT22;23057;48.554;14.454;2023-07-20T00:24:30;16.30;99.90
41939;DHT22;23057;48.554;14.454;2023-07-20T00:27:01;16.20;99.90
41939;DHT22;23057;48.554;14.454;2023-07-20T00:29:33;16.20;99.90
41939;DHT22;23057;48.554;14.454;2023-07-20T00:32:04;16.20;99.90
41939;DHT22;23057;48.554;14.454;2023-07-20T00:34:35;16.10;99.90
41939;DHT22;23057;48.554;14.454;2023-07-20T00:37:06;16.10;99.90
41939;DHT22;23057;48.554;14.454;2023-07-20T00:39:37;16.10;99.90
41939;DHT22;23057;48.554;14.454;2023-07-20T00:42:09;16.00;99.90
41939;DHT22;23057;48.554;14.454;2023-07-20T00:44:39;16.00;99.90
41939;DHT22;23057;48.554;14.454;2023-07-20T00:47:10;16.10;99.90
41939;DHT22;23057;48.554;14.454;2023-07-20T00:49:42;15.90;99.90
41939;DHT22;23057;48.554;14.454;2023-07-20T00:52:14;15.60;99.90
41939;DHT22;23057;48.554;14.454;2023-07-20T00:54:45;15.60;99.90
41939;DHT22;23057;48.554;14.454;2023-07-20T00:57:19;15.70;99.90
41939;DHT22;23057;48.554;14.454;2023-07-20T00:59:50;15.70;99.90
41939;DHT22;23057;48.554;14.454;2023-07-20T01:02:20;15.70;99.90
41939;DHT22;23057;48.554;14.454;2023-07-20T01:04:51;15.80;99.90
41939;DHT22;23057;48.554;14.454;2023-07-20T01:07:34;15.70;99.90
41939;DHT22;23057;48.554;14.454;2023-07-20T01:13:14;15.10;99.90
41939;DHT22;23057;48.554;14.454;2023-07-20T01:15:56;15.20;99.90
41939;DHT22;23057;48.554;14.454;2023-07-20T01:18:30;15.30;99.90
41939;DHT22;23057;48.554;14.454;2023-07-20T01:21:09;15.40;99.90
41939;DHT22;23057;48.554;14.454;2023-07-20T01:27:17;15.60;99.90
41939;DHT22;23057;48.554;14.454;2023-07-20T01:30:25;15.60;99.90
41939;DHT22;23057;48.554;14.454;2023-07-20T01:33:19;15.70;99.90
41939;DHT22;23057;48.554;14.454;2023-07-20T01:35:56;15.70;99.90
41939;DHT22;23057;48.554;14.454;2023-07-20T01:38:30;15.70;99.90
41939;DHT22;23057;48.554;14.454;2023-07-20T01:41:01;15.70;99.90
41939;DHT22;23057;48.554;14.454;2023-07-20T01:43:34;15.70;99.90
41939;DHT22;23057;48.554;14.454;2023-07-20T01:46:05;15.70;99.90
41939;DHT22;23057;48.554;14.454;2023-07-20T01:48:36;15.80;99.90
41939;DHT22;23057;48.554;14.454;2023-07-20T01:51:06;15.80;99.90
41939;DHT22;23057;48.554;14.454;2023-07-20T01:53:37;15.80;99.90
41939;DHT22;23057;48.554;14.454;2023-07-20T01:56:08;15.80;99.90
41939;DHT22;23057;48.554;14.454;2023-07-20T01:58:39;15.90;99.90
41939;DHT22;23057;48.554;14.454;2023-07-20T02:01:10;16.00;99.90
41939;DHT22;23057;48.554;14.454;2023-07-20T02:03:41;16.00;99.90
41939;DHT22;23057;48.554;14.454;2023-07-20T02:06:12;16.10;99.90
41939;DHT22;23057;48.554;14.454;2023-07-20T02:08:43;16.10;99.90
41939;DHT22;23057;48.554;14.454;2023-07-20T02:11:13;16.10;99.90
41939;DHT22;23057;48.554;14.454;2023-07-20T02:13:44;16.00;99.90
41939;DHT22;23057;48.554;14.454;2023-07-20T02:16:15;16.00;99.90
41939;DHT22;23057;48.554;14.454;2023-07-20T02:18:46;16.00;99.90
41939;DHT22;23057;48.554;14.454;2023-07-20T02:21:17;16.00;99.90
41939;DHT22;23057;48.554;14.454;2023-07-20T02:23:48;16.00;99.90
41939;DHT22;23057;48.554;14.454;2023-07-20T02:26:19;16.10;99.90
41939;DHT22;23057;48.554;14.454;2023-07-20T02:28:49;16.20;99.90
41939;DHT22;23057;48.554;14.454;2023-07-20T02:31:21;16.30;99.90
41939;DHT22;23057;48.554;14.454;2023-07-20T02:33:52;16.30;99.90
41939;DHT22;23057;48.554;14.454;2023-07-20T02:36:22;16.40;99.90
41939;DHT22;23057;48.554;14.454;2023-07-20T02:38:53;16.40;99.90
41939;DHT22;23057;48.554;14.454;2023-07-20T02:41:25;16.40;99.90
41939;DHT22;23057;48.554;14.454;2023-07-20T02:43:55;16.50;99.90
41939;DHT22;23057;48.554;14.454;2023-07-20T02:46:27;16.50;99.90
41939;DHT22;23057;48.554;14.454;2023-07-20T02:49:00;16.50;99.90
41939;DHT22;23057;48.554;14.454;2023-07-20T02:51:31;16.50;99.90
41939;DHT22;23057;48.554;14.454;2023-07-20T02:54:02;16.50;99.90
41939;DHT22;23057;48.554;14.454;2023-07-20T02:56:34;16.50;99.90
41939;DHT22;23057;48.554;14.454;2023-07-20T02:59:05;16.60;99.90
41939;DHT22;23057;48.554;14.454;2023-07-20T03:01:36;16.60;99.90
41939;DHT22;23057;48.554;14.454;2023-07-20T03:04:07;16.60;99.90
41939;DHT22;23057;48.554;14.454;2023-07-20T03:06:39;16.60;99.90
41939;DHT22;23057;48.554;14.454;2023-07-20T03:09:10;16.60;99.90
41939;DHT22;23057;48.554;14.454;2023-07-20T03:11:41;16.60;99.90
41939;DHT22;23057;48.554;14.454;2023-07-20T03:14:12;16.50;99.90
41939;DHT22;23057;48.554;14.454;2023-07-20T03:16:44;16.50;99.90
41939;DHT22;23057;48.554;14.454;2023-07-20T03:19:15;16.50;99.90
41939;DHT22;23057;48.554;14.454;2023-07-20T03:21:46;16.50;99.90
41939;DHT22;23057;48.554;14.454;2023-07-20T03:24:17;16.50;99.90
41939;DHT22;23057;48.554;14.454;2023-07-20T03:26:47;16.50;99.90
41939;DHT22;23057;48.554;14.454;2023-07-20T03:29:18;16.50;99.90
41939;DHT22;23057;48.554;14.454;2023-07-20T03:31:49;16.50;99.90
41939;DHT22;23057;48.554;14.454;2023-07-20T03:34:20;16.50;99.90
41939;DHT22;23057;48.554;14.454;2023-07-20T03:36:51;16.50;99.90
41939;DHT22;23057;48.554;14.454;2023-07-20T03:39:22;16.50;99.90
41939;DHT22;23057;48.554;14.454;2023-07-20T03:41:53;16.70;99.90
41939;DHT22;23057;48.554;14.454;2023-07-20T03:44:24;17.00;99.90
41939;DHT22;23057;48.554;14.454;2023-07-20T03:46:55;17.10;1.00
41939;DHT22;23057;48.554;14.454;2023-07-20T03:49:26;17.20;1.00
41939;DHT22;23057;48.554;14.454;2023-07-20T03:51:57;17.10;1.00
41939;DHT22;23057;48.554;14.454;2023-07-20T03:54:28;17.40;99.90
41939;DHT22;23057;48.554;14.454;2023-07-20T03:56:58;17.30;99.90
41939;DHT22;23057;48.554;14.454;2023-07-20T03:59:31;17.10;99.90
41939;DHT22;23057;48.554;14.454;2023-07-20T04:02:01;17.20;1.00
41939;DHT22;23057;48.554;14.454;2023-07-20T04:04:32;18.00;65.40
41939;DHT22;23057;48.554;14.454;2023-07-20T04:07:03;18.50;99.90
41939;DHT22;23057;48.554;14.454;2023-07-20T04:09:34;18.60;1.00
41939;DHT22;23057;48.554;14.454;2023-07-20T04:12:05;18.90;99.90
41939;DHT22;23057;48.554;14.454;2023-07-20T04:14:37;18.90;99.90
41939;DHT22;23057;48.554;14.454;2023-07-20T04:17:07;19.20;99.90
41939;DHT22;23057;48.554;14.454;2023-07-20T04:19:38;19.40;99.90
41939;DHT22;23057;48.554;14.454;2023-07-20T04:22:09;19.80;99.90
41939;DHT22;23057;48.554;14.454;2023-07-20T04:24:41;19.90;64.10
41939;DHT22;23057;48.554;14.454;2023-07-20T04:27:13;20.20;46.50
41939;DHT22;23057;48.554;14.454;2023-07-20T04:29:44;20.50;1.00
41939;DHT22;23057;48.554;14.454;2023-07-20T04:32:15;21.10;1.00
41939;DHT22;23057;48.554;14.454;2023-07-20T04:34:45;21.50;1.00
41939;DHT22;23057;48.554;14.454;2023-07-20T04:37:16;21.30;1.00
41939;DHT22;23057;48.554;14.454;2023-07-20T04:39:47;21.60;1.00
41939;DHT22;23057;48.554;14.454;2023-07-20T04:42:18;22.30;1.00
41939;DHT22;23057;48.554;14.454;2023-07-20T04:44:48;22.60;99.90
41939;DHT22;23057;48.554;14.454;2023-07-20T04:47:19;22.70;99.90
41939;DHT22;23057;48.554;14.454;2023-07-20T04:49:50;22.60;99.90
41939;DHT22;23057;48.554;14.454;2023-07-20T04:52:21;22.50;99.90
41939;DHT22;23057;48.554;14.454;2023-07-20T04:54:52;22.30;99.90
41939;DHT22;23057;48.554;14.454;2023-07-20T04:57:23;22.90;99.90
41939;DHT22;23057;48.554;14.454;2023-07-20T04:59:54;23.10;99.90
41939;DHT22;23057;48.554;14.454;2023-07-20T05:02:25;22.30;99.90
41939;DHT22;23057;48.554;14.454;2023-07-20T05:04:56;22.50;99.90
41939;DHT22;23057;48.554;14.454;2023-07-20T05:07:27;23.10;99.90
41939;DHT22;23057;48.554;14.454;2023-07-20T05:09:58;23.00;99.90
41939;DHT22;23057;48.554;14.454;2023-07-20T05:12:29;23.20;99.90
41939;DHT22;23057;48.554;14.454;2023-07-20T05:15:00;22.90;99.90
41939;DHT22;23057;48.554;14.454;2023-07-20T05:17:31;22.70;99.90
41939;DHT22;23057;48.554;14.454;2023-07-20T05:20:01;23.70;99.90
41939;DHT22;23057;48.554;14.454;2023-07-20T05:22:34;23.20;99.90
41939;DHT22;23057;48.554;14.454;2023-07-20T05:25:10;22.40;99.90
41939;DHT22;23057;48.554;14.454;2023-07-20T05:27:42;21.60;99.90
41939;DHT22;23057;48.554;14.454;2023-07-20T05:30:13;21.60;99.90
41939;DHT22;23057;48.554;14.454;2023-07-20T05:32:44;21.50;99.90
41939;DHT22;23057;48.554;14.454;2023-07-20T05:35:21;21.40;99.90
41939;DHT22;23057;48.554;14.454;2023-07-20T05:37:52;22.50;99.90
41939;DHT22;23057;48.554;14.454;2023-07-20T05:40:23;22.10;99.90
41939;DHT22;23057;48.554;14.454;2023-07-20T05:42:54;22.30;99.90
41939;DHT22;23057;48.554;14.454;2023-07-20T05:45:27;21.30;99.90
41939;DHT22;23057;48.554;14.454;2023-07-20T05:47:58;21.20;99.90
41939;DHT22;23057;48.554;14.454;2023-07-20T05:50:29;21.40;99.90
41939;DHT22;23057;48.554;14.454;2023-07-20T05:53:00;21.70;99.90
41939;DHT22;23057;48.554;14.454;2023-07-20T05:55:31;22.00;99.90
41939;DHT22;23057;48.554;14.454;2023-07-20T05:58:02;22.40;99.90
41939;DHT22;23057;48.554;14.454;2023-07-20T06:00:34;22.80;99.90
41939;DHT22;23057;48.554;14.454;2023-07-20T06:03:05;23.10;99.90
41939;DHT22;23057;48.554;14.454;2023-07-20T06:05:36;23.50;99.90
41939;DHT22;23057;48.554;14.454;2023-07-20T06:08:06;22.50;99.90
41939;DHT22;23057;48.554;14.454;2023-07-20T06:10:37;21.70;99.90
41939;DHT22;23057;48.554;14.454;2023-07-20T06:13:08;21.10;99.90
41939;DHT22;23057;48.554;14.454;2023-07-20T06:15:39;20.70;1.00
41939;DHT22;23057;48.554;14.454;2023-07-20T06:18:11;20.50;1.00
41939;DHT22;23057;48.554;14.454;2023-07-20T06:20:42;20.00;1.00
41939;DHT22;23057;48.554;14.454;2023-07-20T06:23:13;20.00;1.00
41939;DHT22;23057;48.554;14.454;2023-07-20T06:25:44;19.60;10.30
41939;DHT22;23057;48.554;14.454;2023-07-20T06:28:16;19.40;82.00
41939;DHT22;23057;48.554;14.454;2023-07-20T06:30:46;19.00;99.90
41939;DHT22;23057;48.554;14.454;2023-07-20T06:33:17;18.80;99.90
41939;DHT22;23057;48.554;14.454;2023-07-20T06:35:48;18.70;99.90
41939;DHT22;23057;48.554;14.454;2023-07-20T06:38:19;18.60;99.90
41939;DHT22;23057;48.554;14.454;2023-07-20T06:40:51;18.70;99.90
41939;DHT22;23057;48.554;14.454;2023-07-20T06:43:21;18.70;99.90
41939;DHT22;23057;48.554;14.454;2023-07-20T06:45:52;18.60;99.90
41939;DHT22;23057;48.554;14.454;2023-07-20T06:48:24;18.60;99.90
41939;DHT22;23057;48.554;14.454;2023-07-20T06:50:55;18.70;1.00
41939;DHT22;23057;48.554;14.454;2023-07-20T06:53:26;18.70;1.00
41939;DHT22;23057;48.554;14.454;2023-07-20T06:55:57;18.80;1.00
41939;DHT22;23057;48.554;14.454;2023-07-20T06:58:28;18.90;1.00
41939;DHT22;23057;48.554;14.454;2023-07-20T07:00:58;19.20;1.00
41939;DHT22;23057;48.554;14.454;2023-07-20T07:03:29;19.20;99.90
41939;DHT22;23057;48.554;14.454;2023-07-20T07:06:00;19.30;99.90
41939;DHT22;23057;48.554;14.454;2023-07-20T07:08:31;19.30;99.90
41939;DHT22;23057;48.554;14.454;2023-07-20T07:11:02;19.40;99.90
41939;DHT22;23057;48.554;14.454;2023-07-20T07:13:33;19.40;99.90
41939;DHT22;23057;48.554;14.454;2023-07-20T07:16:04;19.60;99.90
41939;DHT22;23057;48.554;14.454;2023-07-20T07:18:35;19.50;99.90
41939;DHT22;23057;48.554;14.454;2023-07-20T07:21:06;19.40;99.90
41939;DHT22;23057;48.554;14.454;2023-07-20T07:23:38;19.40;99.90
41939;DHT22;23057;48.554;14.454;2023-07-20T07:26:10;19.60;99.90
41939;DHT22;23057;48.554;14.454;2023-07-20T07:28:41;19.60;99.90
41939;DHT22;23057;48.554;14.454;2023-07-20T07:31:11;19.70;99.90
41939;DHT22;23057;48.554;14.454;2023-07-20T07:33:42;19.80;99.90
41939;DHT22;23057;48.554;14.454;2023-07-20T07:36:13;19.80;99.90
41939;DHT22;23057;48.554;14.454;2023-07-20T07:38:44;19.70;99.90
41939;DHT22;23057;48.554;14.454;2023-07-20T07:41:14;19.90;99.90
41939;DHT22;23057;48.554;14.454;2023-07-20T07:43:45;19.90;78.00
41939;DHT22;23057;48.554;14.454;2023-07-20T07:46:16;20.10;99.90
41939;DHT22;23057;48.554;14.454;2023-07-20T07:48:47;20.10;99.90
41939;DHT22;23057;48.554;14.454;2023-07-20T07:51:19;20.10;18.00
41939;DHT22;23057;48.554;14.454;2023-07-20T07:53:50;20.30;2.00
41939;DHT22;23057;48.554;14.454;2023-07-20T07:56:21;20.00;1.00
41939;DHT22;23057;48.554;14.454;2023-07-20T07:58:53;20.10;1.00
41939;DHT22;23057;48.554;14.454;2023-07-20T08:01:23;20.30;1.00
41939;DHT22;23057;48.554;14.454;2023-07-20T08:03:54;20.30;1.00
41939;DHT22;23057;48.554;14.454;2023-07-20T08:06:25;20.20;1.00
41939;DHT22;23057;48.554;14.454;2023-07-20T08:08:56;20.10;1.00
41939;DHT22;23057;48.554;14.454;2023-07-20T08:11:27;20.10;3.40
41939;DHT22;23057;48.554;14.454;2023-07-20T08:14:01;20.20;17.00
41939;DHT22;23057;48.554;14.454;2023-07-20T08:16:31;20.10;4.00
41939;DHT22;23057;48.554;14.454;2023-07-20T08:19:02;20.40;1.00
41939;DHT22;23057;48.554;14.454;2023-07-20T08:21:33;20.40;1.00
41939;DHT22;23057;48.554;14.454;2023-07-20T08:24:04;20.60;1.00
41939;DHT22;23057;48.554;14.454;2023-07-20T08:26:35;21.20;1.00
41939;DHT22;23057;48.554;14.454;2023-07-20T08:29:06;21.50;1.00
41939;DHT22;23057;48.554;14.454;2023-07-20T08:31:36;21.60;1.00
41939;DHT22;23057;48.554;14.454;2023-07-20T08:34:07;21.50;1.00
41939;DHT22;23057;48.554;14.454;2023-07-20T08:36:38;21.20;1.00
41939;DHT22;23057;48.554;14.454;2023-07-20T08:39:09;20.50;1.00
41939;DHT22;23057;48.554;14.454;2023-07-20T08:41:46;20.80;1.00
41939;DHT22;23057;48.554;14.454;2023-07-20T08:44:17;22.00;1.00
41939;DHT22;23057;48.554;14.454;2023-07-20T08:46:49;22.00;99.90
41939;DHT22;23057;48.554;14.454;2023-07-20T08:49:21;21.70;99.90
41939;DHT22;23057;48.554;14.454;2023-07-20T08:51:52;21.60;99.90
41939;DHT22;23057;48.554;14.454;2023-07-20T08:54:27;21.30;99.90
41939;DHT22;23057;48.554;14.454;2023-07-20T08:57:05;21.60;99.90
41939;DHT22;23057;48.554;14.454;2023-07-20T08:59:38;21.50;99.90
41939;DHT22;23057;48.554;14.454;2023-07-20T09:02:13;21.70;99.90
41939;DHT22;23057;48.554;14.454;2023-07-20T09:04:48;22.10;99.90
41939;DHT22;23057;48.554;14.454;2023-07-20T09:07:20;21.50;99.90
41939;DHT22;23057;48.554;14.454;2023-07-20T09:09:51;21.60;99.90
41939;DHT22;23057;48.554;14.454;2023-07-20T09:12:22;21.60;99.90
41939;DHT22;23057;48.554;14.454;2023-07-20T09:14:57;21.90;99.90
41939;DHT22;23057;48.554;14.454;2023-07-20T09:17:28;22.30;99.90
41939;DHT22;23057;48.554;14.454;2023-07-20T09:20:01;21.90;99.90
41939;DHT22;23057;48.554;14.454;2023-07-20T09:22:43;21.60;99.90
41939;DHT22;23057;48.554;14.454;2023-07-20T09:25:16;22.00;99.90
41939;DHT22;23057;48.554;14.454;2023-07-20T09:27:52;22.30;99.90
41939;DHT22;23057;48.554;14.454;2023-07-20T09:30:26;22.40;99.90
41939;DHT22;23057;48.554;14.454;2023-07-20T09:32:58;22.70;99.90
41939;DHT22;23057;48.554;14.454;2023-07-20T09:35:29;22.50;99.90
41939;DHT22;23057;48.554;14.454;2023-07-20T09:38:01;22.80;99.90
41939;DHT22;23057;48.554;14.454;2023-07-20T09:40:37;22.80;99.90
41939;DHT22;23057;48.554;14.454;2023-07-20T09:43:11;23.20;99.90
41939;DHT22;23057;48.554;14.454;2023-07-20T09:45:42;23.00;99.90
41939;DHT22;23057;48.554;14.454;2023-07-20T09:48:14;23.00;99.90
41939;DHT22;23057;48.554;14.454;2023-07-20T09:50:51;23.00;99.90
41939;DHT22;23057;48.554;14.454;2023-07-20T09:53:24;23.10;99.90
41939;DHT22;23057;48.554;14.454;2023-07-20T09:55:57;23.10;99.90
41939;DHT22;23057;48.554;14.454;2023-07-20T09:58:31;23.20;99.90
41939;DHT22;23057;48.554;14.454;2023-07-20T10:01:07;23.30;99.90
41939;DHT22;23057;48.554;14.454;2023-07-20T10:03:41;22.90;99.90
41939;DHT22;23057;48.554;14.454;2023-07-20T10:06:20;23.00;99.90
41939;DHT22;23057;48.554;14.454;2023-07-20T10:09:02;23.50;99.90
41939;DHT22;23057;48.554;14.454;2023-07-20T10:11:35;23.20;99.90
41939;DHT22;23057;48.554;14.454;2023-07-20T10:14:12;22.90;99.90
41939;DHT22;23057;48.554;14.454;2023-07-20T10:16:57;22.80;99.90
41939;DHT22;23057;48.554;14.454;2023-07-20T10:19:43;22.40;99.90
41939;DHT22;23057;48.554;14.454;2023-07-20T10:22:26;22.30;99.90
41939;DHT22;23057;48.554;14.454;2023-07-20T10:25:00;22.30;99.90
41939;DHT22;23057;48.554;14.454;2023-07-20T10:27:32;22.00;99.90
41939;DHT22;23057;48.554;14.454;2023-07-20T10:30:03;22.60;99.90
41939;DHT22;23057;48.554;14.454;2023-07-20T10:32:35;22.50;99.90
41939;DHT22;23057;48.554;14.454;2023-07-20T10:35:17;21.80;99.90
41939;DHT22;23057;48.554;14.454;2023-07-20T10:38:00;22.00;99.90
41939;DHT22;23057;48.554;14.454;2023-07-20T10:40:34;21.80;99.90
41939;DHT22;23057;48.554;14.454;2023-07-20T10:43:10;22.10;99.90
41939;DHT22;23057;48.554;14.454;2023-07-20T10:45:52;22.70;99.90
41939;DHT22;23057;48.554;14.454;2023-07-20T10:48:24;23.40;99.90
41939;DHT22;23057;48.554;14.454;2023-07-20T10:51:12;23.00;99.90
41939;DHT22;23057;48.554;14.454;2023-07-20T10:53:50;23.40;99.90
41939;DHT22;23057;48.554;14.454;2023-07-20T10:56:23;23.40;99.90
41939;DHT22;23057;48.554;14.454;2023-07-20T10:59:00;22.60;99.90
41939;DHT22;23057;48.554;14.454;2023-07-20T11:01:48;22.40;99.90
41939;DHT22;23057;48.554;14.454;2023-07-20T11:04:38;21.90;99.90
41939;DHT22;23057;48.554;14.454;2023-07-20T11:07:37;22.30;99.90
41939;DHT22;23057;48.554;14.454;2023-07-20T11:10:14;22.60;99.90
41939;DHT22;23057;48.554;14.454;2023-07-20T11:13:17;22.60;99.90
41939;DHT22;23057;48.554;14.454;2023-07-20T11:18:29;23.60;99.90
41939;DHT22;23057;48.554;14.454;2023-07-20T11:21:01;23.50;99.90
41939;DHT22;23057;48.554;14.454;2023-07-20T11:23:33;23.50;99.90
41939;DHT22;23057;48.554;14.454;2023-07-20T11:26:04;23.40;99.90
41939;DHT22;23057;48.554;14.454;2023-07-20T11:28:36;23.70;99.90
41939;DHT22;23057;48.554;14.454;2023-07-20T11:31:07;24.10;99.90
41939;DHT22;23057;48.554;14.454;2023-07-20T11:33:38;23.90;99.90
41939;DHT22;23057;48.554;14.454;2023-07-20T11:36:09;22.90;99.90
41939;DHT22;23057;48.554;14.454;2023-07-20T11:38:43;22.80;99.90
41939;DHT22;23057;48.554;14.454;2023-07-20T11:41:16;23.70;99.90
41939;DHT22;23057;48.554;14.454;2023-07-20T11:43:47;24.00;99.90
41939;DHT22;23057;48.554;14.454;2023-07-20T11:46:18;23.80;99.90
41939;DHT22;23057;48.554;14.454;2023-07-20T11:48:56;23.60;99.90
41939;DHT22;23057;48.554;14.454;2023-07-20T11:51:30;23.50;99.90
41939;DHT22;23057;48.554;14.454;2023-07-20T11:54:03;23.70;99.90
41939;DHT22;23057;48.554;14.454;2023-07-20T11:56:36;23.70;99.90
41939;DHT22;23057;48.554;14.454;2023-07-20T11:59:13;23.80;99.90
41939;DHT22;23057;48.554;14.454;2023-07-20T12:01:44;23.60;99.90
41939;DHT22;23057;48.554;14.454;2023-07-20T12:04:16;23.50;99.90
41939;DHT22;23057;48.554;14.454;2023-07-20T12:06:47;23.70;99.90
41939;DHT22;23057;48.554;14.454;2023-07-20T12:09:18;23.90;99.90
41939;DHT22;23057;48.554;14.454;2023-07-20T12:11:49;23.80;99.90
41939;DHT22;23057;48.554;14.454;2023-07-20T12:14:20;24.30;99.90
41939;DHT22;23057;48.554;14.454;2023-07-20T12:16:55;24.20;99.90
41939;DHT22;23057;48.554;14.454;2023-07-20T12:19:26;24.40;99.90
41939;DHT22;23057;48.554;14.454;2023-07-20T12:21:58;25.00;99.90
41939;DHT22;23057;48.554;14.454;2023-07-20T12:24:31;24.50;99.90
41939;DHT22;23057;48.554;14.454;2023-07-20T12:27:03;24.50;99.90
41939;DHT22;23057;48.554;14.454;2023-07-20T12:29:35;24.00;99.90
41939;DHT22;23057;48.554;14.454;2023-07-20T12:32:07;23.70;99.90
41939;DHT22;23057;48.554;14.454;2023-07-20T12:34:38;23.40;99.90
41939;DHT22;23057;48.554;14.454;2023-07-20T12:37:09;23.50;99.90
41939;DHT22;23057;48.554;14.454;2023-07-20T12:39:39;22.80;99.90
41939;DHT22;23057;48.554;14.454;2023-07-20T12:42:11;23.00;99.90
41939;DHT22;23057;48.554;14.454;2023-07-20T12:44:42;23.80;99.90
41939;DHT22;23057;48.554;14.454;2023-07-20T12:47:12;23.90;99.90
41939;DHT22;23057;48.554;14.454;2023-07-20T12:49:43;23.90;99.90
41939;DHT22;23057;48.554;14.454;2023-07-20T12:52:15;23.80;99.90
41939;DHT22;23057;48.554;14.454;2023-07-20T12:54:46;24.10;99.90
41939;DHT22;23057;48.554;14.454;2023-07-20T12:57:17;24.30;99.90
41939;DHT22;23057;48.554;14.454;2023-07-20T12:59:48;24.30;99.90
41939;DHT22;23057;48.554;14.454;2023-07-20T13:02:19;24.40;99.90
41939;DHT22;23057;48.554;14.454;2023-07-20T13:04:50;24.40;99.90
41939;DHT22;23057;48.554;14.454;2023-07-20T13:07:36;23.30;99.90
41939;DHT22;23057;48.554;14.454;2023-07-20T13:10:10;23.30;99.90
41939;DHT22;23057;48.554;14.454;2023-07-20T13:12:42;22.90;99.90
41939;DHT22;23057;48.554;14.454;2023-07-20T13:15:13;23.20;99.90
41939;DHT22;23057;48.554;14.454;2023-07-20T13:17:43;23.40;99.90
41939;DHT22;23057;48.554;14.454;2023-07-20T13:20:16;23.20;99.90
41939;DHT22;23057;48.554;14.454;2023-07-20T13:22:47;22.90;99.90
41939;DHT22;23057;48.554;14.454;2023-07-20T13:25:18;22.30;99.90
41939;DHT22;23057;48.554;14.454;2023-07-20T13:27:49;22.50;99.90
41939;DHT22;23057;48.554;14.454;2023-07-20T13:30:20;22.80;99.90
41939;DHT22;23057;48.554;14.454;2023-07-20T13:32:52;23.60;99.90
41939;DHT22;23057;48.554;14.454;2023-07-20T13:35:23;23.40;99.90
41939;DHT22;23057;48.554;14.454;2023-07-20T13:37:53;22.60;99.90
41939;DHT22;23057;48.554;14.454;2023-07-20T13:40:24;22.60;99.90
41939;DHT22;23057;48.554;14.454;2023-07-20T13:42:55;22.50;99.90
41939;DHT22;23057;48.554;14.454;2023-07-20T13:45:26;22.30;99.90
41939;DHT22;23057;48.554;14.454;2023-07-20T13:47:56;22.30;99.90
41939;DHT22;23057;48.554;14.454;2023-07-20T13:50:27;22.50;99.90
41939;DHT22;23057;48.554;14.454;2023-07-20T13:52:58;23.30;99.90
41939;DHT22;23057;48.554;14.454;2023-07-20T13:55:29;23.50;99.90
41939;DHT22;23057;48.554;14.454;2023-07-20T13:58:01;22.90;99.90
41939;DHT22;23057;48.554;14.454;2023-07-20T14:00:32;22.60;99.90
41939;DHT22;23057;48.554;14.454;2023-07-20T14:03:03;22.50;99.90
41939;DHT22;23057;48.554;14.454;2023-07-20T14:05:34;22.40;99.90
41939;DHT22;23057;48.554;14.454;2023-07-20T14:08:05;22.70;99.90
41939;DHT22;23057;48.554;14.454;2023-07-20T14:10:36;22.90;99.90
41939;DHT22;23057;48.554;14.454;2023-07-20T14:13:07;23.00;99.90
41939;DHT22;23057;48.554;14.454;2023-07-20T14:15:39;23.30;99.90
41939;DHT22;23057;48.554;14.454;2023-07-20T14:18:10;23.60;99.90
41939;DHT22;23057;48.554;14.454;2023-07-20T14:20:40;23.80;99.90
41939;DHT22;23057;48.554;14.454;2023-07-20T14:23:11;23.90;99.90
41939;DHT22;23057;48.554;14.454;2023-07-20T14:25:42;24.10;99.90
41939;DHT22;23057;48.554;14.454;2023-07-20T14:28:13;24.00;99.90
41939;DHT22;23057;48.554;14.454;2023-07-20T14:30:44;23.80;99.90
41939;DHT22;23057;48.554;14.454;2023-07-20T14:33:14;23.70;99.90
41939;DHT22;23057;48.554;14.454;2023-07-20T14:35:45;23.50;99.90
41939;DHT22;23057;48.554;14.454;2023-07-20T14:38:16;23.80;99.90
41939;DHT22;23057;48.554;14.454;2023-07-20T14:40:47;23.50;99.90
41939;DHT22;23057;48.554;14.454;2023-07-20T14:43:18;23.50;99.90
41939;DHT22;23057;48.554;14.454;2023-07-20T14:45:49;23.60;99.90
41939;DHT22;23057;48.554;14.454;2023-07-20T14:48:20;24.00;99.90
41939;DHT22;23057;48.554;14.454;2023-07-20T14:50:51;23.90;99.90
41939;DHT22;23057;48.554;14.454;2023-07-20T14:53:21;24.00;99.90
41939;DHT22;23057;48.554;14.454;2023-07-20T14:55:52;24.00;99.90
41939;DHT22;23057;48.554;14.454;2023-07-20T14:58:23;23.90;99.90
41939;DHT22;23057;48.554;14.454;2023-07-20T15:00:54;24.20;99.90
41939;DHT22;23057;48.554;14.454;2023-07-20T15:03:24;24.10;99.90
41939;DHT22;23057;48.554;14.454;2023-07-20T15:05:55;24.00;99.90
41939;DHT22;23057;48.554;14.454;2023-07-20T15:08:26;23.80;99.90
41939;DHT22;23057;48.554;14.454;2023-07-20T15:10:57;23.90;99.90
41939;DHT22;23057;48.554;14.454;2023-07-20T15:13:28;23.90;99.90
41939;DHT22;23057;48.554;14.454;2023-07-20T15:15:59;23.80;99.90
41939;DHT22;23057;48.554;14.454;2023-07-20T15:18:29;23.70;99.90
41939;DHT22;23057;48.554;14.454;2023-07-20T15:21:00;23.90;99.90
41939;DHT22;23057;48.554;14.454;2023-07-20T15:23:31;23.40;99.90
41939;DHT22;23057;48.554;14.454;2023-07-20T15:26:02;23.10;99.90
41939;DHT22;23057;48.554;14.454;2023-07-20T15:28:33;23.00;99.90
41939;DHT22;23057;48.554;14.454;2023-07-20T15:31:05;22.90;99.90
41939;DHT22;23057;48.554;14.454;2023-07-20T15:33:35;22.90;99.90
41939;DHT22;23057;48.554;14.454;2023-07-20T15:36:06;23.00;99.90
41939;DHT22;23057;48.554;14.454;2023-07-20T15:38:38;22.70;99.90
41939;DHT22;23057;48.554;14.454;2023-07-20T15:41:09;22.60;99.90
41939;DHT22;23057;48.554;14.454;2023-07-20T15:43:41;22.90;99.90
41939;DHT22;23057;48.554;14.454;2023-07-20T15:48:50;23.00;99.90
41939;DHT22;23057;48.554;14.454;2023-07-20T15:51:21;23.20;99.90
41939;DHT22;23057;48.554;14.454;2023-07-20T15:53:52;23.30;99.90
41939;DHT22;23057;48.554;14.454;2023-07-20T15:56:22;23.40;99.90
41939;DHT22;23057;48.554;14.454;2023-07-20T15:58:53;23.20;99.90
41939;DHT22;23057;48.554;14.454;2023-07-20T16:01:24;22.80;99.90